Time;durP1;ratioP1;P1;durP2;ratioP2;P2;SDS_P1;SDS_P2;PMS_P1;PMS_P2;Temp;Humidity;BMP_temperature;BMP_pressure;BME280_temperature;BME280_humidity;BME280_pressure;Samples;Min_cycle;Max_cycle;Signal;HPM_P1;HPM_P2
2024/02/07 00:02:05;0.00;0.00;0.62;0.00;0.00;0.62;5.70;3.03;;;21.80;27.90;;;;;;2262225;61;20746;-71
2024/02/07 00:04:50;0.00;0.00;0.62;0.00;0.00;0.62;4.57;2.50;;;21.80;27.90;;;;;;2262774;61;20356;-68
2024/02/07 00:07:36;0.00;0.00;0.62;0.00;0.00;0.62;4.77;2.87;;;21.80;27.90;;;;;;2261476;61;20396;-68
2024/02/07 00:10:22;0.00;0.00;0.62;0.00;0.00;0.62;5.23;2.80;;;21.80;27.90;;;;;;2261495;61;20860;-71
2024/02/07 00:13:07;0.00;0.00;0.62;0.00;0.00;0.62;3.30;2.60;;;21.80;27.90;;;;;;2257532;61;20435;-70
2024/02/07 00:15:51;0.00;0.00;0.62;0.00;0.00;0.62;3.80;2.63;;;21.80;27.90;;;;;;2261102;61;20411;-69
2024/02/07 00:18:36;0.00;0.00;0.62;0.00;0.00;0.62;3.40;2.23;;;21.80;27.90;;;;;;2260898;61;20392;-70
2024/02/07 00:21:21;0.00;0.00;0.62;0.00;0.00;0.62;4.47;2.50;;;21.80;27.90;;;;;;2261730;61;20831;-68
2024/02/07 00:24:06;0.00;0.00;0.62;0.00;0.00;0.62;3.90;2.67;;;21.80;27.90;;;;;;2261151;61;20848;-69
2024/02/07 00:26:52;0.00;0.00;0.62;0.00;0.00;0.62;3.97;2.87;;;21.80;27.90;;;;;;2260992;61;20927;-68
2024/02/07 00:29:37;0.00;0.00;0.62;0.00;0.00;0.62;3.27;2.10;;;21.80;27.90;;;;;;2261539;61;20357;-68
2024/02/07 00:32:21;0.00;0.00;0.62;0.00;0.00;0.62;4.10;2.50;;;21.80;27.90;;;;;;2261103;61;20521;-68
2024/02/07 00:35:07;0.00;0.00;0.62;0.00;0.00;0.62;3.33;2.27;;;21.80;27.90;;;;;;2264335;61;20363;-68
2024/02/07 00:37:51;0.00;0.00;0.62;0.00;0.00;0.62;2.67;1.97;;;21.80;27.90;;;;;;2264882;61;20395;-68
2024/02/07 00:40:36;0.00;0.00;0.62;0.00;0.00;0.62;3.67;2.47;;;21.80;27.90;;;;;;2264892;61;20395;-69
2024/02/07 00:43:22;0.00;0.00;0.62;0.00;0.00;0.62;2.87;2.50;;;21.80;27.90;;;;;;2264965;61;20754;-68
2024/02/07 00:46:07;0.00;0.00;0.62;0.00;0.00;0.62;3.00;2.00;;;21.80;27.90;;;;;;2265066;61;20791;-67
2024/02/07 00:48:51;0.00;0.00;0.62;0.00;0.00;0.62;3.00;2.47;;;21.80;27.90;;;;;;2265505;61;20348;-67
2024/02/07 00:51:36;0.00;0.00;0.62;0.00;0.00;0.62;3.00;1.87;;;21.80;27.90;;;;;;2265871;61;20352;-67
2024/02/07 00:54:23;0.00;0.00;0.62;0.00;0.00;0.62;2.30;1.80;;;21.80;27.90;;;;;;2266323;61;20443;-68
2024/02/07 00:57:08;0.00;0.00;0.62;0.00;0.00;0.62;3.37;2.20;;;21.80;27.90;;;;;;2309686;40;20407;-67
2024/02/07 00:59:54;0.00;0.00;0.62;0.00;0.00;0.62;3.77;2.37;;;21.80;27.90;;;;;;2267196;61;20438;-67
2024/02/07 01:02:40;0.00;0.00;0.62;0.00;0.00;0.62;3.80;2.27;;;21.80;27.90;;;;;;2263912;61;20352;-68
2024/02/07 01:05:24;0.00;0.00;0.62;0.00;0.00;0.62;2.10;1.50;;;21.80;27.90;;;;;;2262906;61;20407;-67
2024/02/07 01:08:09;0.00;0.00;0.62;0.00;0.00;0.62;2.33;1.70;;;21.80;27.90;;;;;;2262845;61;20391;-68
2024/02/07 01:10:54;0.00;0.00;0.62;0.00;0.00;0.62;3.17;1.70;;;21.80;27.90;;;;;;2261261;61;20358;-69
2024/02/07 01:13:38;0.00;0.00;0.62;0.00;0.00;0.62;2.70;1.53;;;21.80;27.90;;;;;;2261199;61;20415;-68
2024/02/07 01:16:24;0.00;0.00;0.62;0.00;0.00;0.62;3.03;1.90;;;21.80;27.90;;;;;;2261145;61;20392;-68
2024/02/07 01:19:09;0.00;0.00;0.62;0.00;0.00;0.62;2.60;1.70;;;21.80;27.90;;;;;;2264055;61;20893;-68
2024/02/07 01:21:55;0.00;0.00;0.62;0.00;0.00;0.62;2.57;1.77;;;21.80;27.90;;;;;;2265337;61;20388;-69
2024/02/07 01:24:41;0.00;0.00;0.62;0.00;0.00;0.62;2.83;1.47;;;21.80;27.90;;;;;;2262026;61;20495;-69
2024/02/07 01:27:25;0.00;0.00;0.62;0.00;0.00;0.62;2.40;1.70;;;21.80;27.90;;;;;;2264852;61;20384;-69
2024/02/07 01:30:13;0.00;0.00;0.62;0.00;0.00;0.62;2.87;1.80;;;21.80;27.90;;;;;;2259358;61;20379;-70
2024/02/07 01:32:59;0.00;0.00;0.62;0.00;0.00;0.62;2.00;1.37;;;21.80;27.90;;;;;;2261760;61;20361;-69
2024/02/07 01:35:44;0.00;0.00;0.62;0.00;0.00;0.62;2.40;1.50;;;21.80;27.90;;;;;;2264935;61;20388;-68
2024/02/07 01:38:29;0.00;0.00;0.62;0.00;0.00;0.62;2.27;1.60;;;21.80;27.90;;;;;;2261999;61;20387;-67
2024/02/07 01:41:14;0.00;0.00;0.62;0.00;0.00;0.62;2.40;1.50;;;21.80;27.90;;;;;;2261636;61;20397;-67
2024/02/07 01:43:58;0.00;0.00;0.62;0.00;0.00;0.62;1.97;1.30;;;21.80;27.90;;;;;;2257455;61;20440;-67
2024/02/07 01:46:43;0.00;0.00;0.62;0.00;0.00;0.62;2.00;1.37;;;21.80;27.90;;;;;;2261287;61;20385;-67
2024/02/07 01:49:29;0.00;0.00;0.62;0.00;0.00;0.62;1.97;1.33;;;21.80;27.90;;;;;;2266432;58;20629;-67
2024/02/07 01:52:17;0.00;0.00;0.62;0.00;0.00;0.62;2.27;1.53;;;21.80;27.90;;;;;;2265520;61;20544;-70
2024/02/07 01:55:03;0.00;0.00;0.62;0.00;0.00;0.62;2.43;1.50;;;21.80;27.90;;;;;;2264773;61;20402;-70
2024/02/07 01:57:48;0.00;0.00;0.62;0.00;0.00;0.62;2.23;1.20;;;21.80;27.90;;;;;;2265097;61;20352;-67
2024/02/07 02:00:35;0.00;0.00;0.62;0.00;0.00;0.62;2.17;1.50;;;21.90;27.90;;;;;;2547314;45;20461;-68
2024/02/07 02:03:20;0.00;0.00;0.62;0.00;0.00;0.62;1.90;1.20;;;21.90;27.90;;;;;;2258657;61;20400;-68
2024/02/07 02:06:07;0.00;0.00;0.62;0.00;0.00;0.62;2.07;1.30;;;21.90;27.90;;;;;;2257803;61;20391;-68
2024/02/07 02:08:51;0.00;0.00;0.62;0.00;0.00;0.62;3.30;1.53;;;21.90;27.90;;;;;;2264837;61;20356;-68
2024/02/07 02:11:40;0.00;0.00;0.62;0.00;0.00;0.62;2.20;1.50;;;21.90;27.90;;;;;;2260584;61;20806;-67
2024/02/07 02:14:25;0.00;0.00;0.62;0.00;0.00;0.62;2.50;1.40;;;21.90;27.90;;;;;;2260726;61;20381;-68
2024/02/07 02:17:10;0.00;0.00;0.62;0.00;0.00;0.62;2.17;1.27;;;21.90;28.00;;;;;;2261496;61;20427;-67
2024/02/07 02:19:55;0.00;0.00;0.62;0.00;0.00;0.62;1.93;1.20;;;21.90;27.90;;;;;;2264938;61;20642;-67
2024/02/07 02:23:21;0.00;0.00;0.62;0.00;0.00;0.62;2.50;1.20;;;21.90;27.90;;;;;;2264868;61;20352;-67
2024/02/07 02:26:37;0.00;0.00;0.62;0.00;0.00;0.62;1.80;1.17;;;21.90;27.90;;;;;;2261055;61;20435;-68
2024/02/07 02:29:32;0.00;0.00;0.62;0.00;0.00;0.62;1.90;1.03;;;21.90;27.90;;;;;;2260770;61;20377;-67
2024/02/07 02:32:18;0.00;0.00;0.62;0.00;0.00;0.62;1.60;1.00;;;21.90;28.00;;;;;;2260688;61;20376;-68
2024/02/07 02:35:05;0.00;0.00;0.62;0.00;0.00;0.62;2.20;1.30;;;21.90;27.90;;;;;;2260566;61;20397;-68
2024/02/07 02:37:50;0.00;0.00;0.62;0.00;0.00;0.62;1.70;1.13;;;21.90;27.90;;;;;;2260699;61;20361;-68
2024/02/07 02:40:34;0.00;0.00;0.62;0.00;0.00;0.62;1.80;1.03;;;21.90;28.00;;;;;;2260557;61;20570;-67
2024/02/07 02:43:22;0.00;0.00;0.62;0.00;0.00;0.62;3.20;1.30;;;22.00;28.00;;;;;;2260735;61;20887;-67
2024/02/07 02:46:09;0.00;0.00;0.62;0.00;0.00;0.62;2.00;1.10;;;22.00;28.00;;;;;;2260811;61;20931;-67
2024/02/07 02:48:54;0.00;0.00;0.62;0.00;0.00;0.62;1.83;1.00;;;22.00;28.00;;;;;;2497454;53;20349;-69
2024/02/07 02:51:39;0.00;0.00;0.62;0.00;0.00;0.62;2.03;1.10;;;22.00;27.90;;;;;;2261086;61;20345;-69
2024/02/07 02:54:23;0.00;0.00;0.62;0.00;0.00;0.62;2.03;1.40;;;22.00;27.90;;;;;;2260759;61;20435;-69
2024/02/07 02:57:08;0.00;0.00;0.62;0.00;0.00;0.62;2.50;1.10;;;22.00;27.80;;;;;;2260585;61;20445;-67
2024/02/07 02:59:54;0.00;0.00;0.62;0.00;0.00;0.62;2.40;1.40;;;22.00;27.80;;;;;;2261086;61;20396;-67
2024/02/07 03:02:43;0.00;0.00;0.62;0.00;0.00;0.62;1.93;1.17;;;22.00;27.80;;;;;;2264002;61;20429;-67
2024/02/07 03:05:38;0.00;0.00;0.62;0.00;0.00;0.62;2.23;1.10;;;22.00;27.80;;;;;;2264776;61;20431;-69
2024/02/07 03:08:29;0.00;0.00;0.62;0.00;0.00;0.62;2.10;1.27;;;22.00;27.80;;;;;;2264864;61;20419;-67
2024/02/07 03:11:14;0.00;0.00;0.62;0.00;0.00;0.62;2.57;1.47;;;22.00;27.70;;;;;;2264796;61;20483;-66
2024/02/07 03:14:00;0.00;0.00;0.62;0.00;0.00;0.62;2.00;1.10;;;22.00;27.70;;;;;;2264954;61;20429;-70
2024/02/07 03:16:46;0.00;0.00;0.62;0.00;0.00;0.62;2.03;1.07;;;22.00;27.70;;;;;;2260974;61;20388;-68
2024/02/07 03:19:31;0.00;0.00;0.62;0.00;0.00;0.62;1.83;0.93;;;22.00;27.60;;;;;;2260508;61;20357;-68
2024/02/07 03:22:17;0.00;0.00;0.62;0.00;0.00;0.62;1.87;1.07;;;22.00;27.60;;;;;;2260832;61;20414;-68
2024/02/07 03:25:03;0.00;0.00;0.62;0.00;0.00;0.62;1.97;1.33;;;22.00;27.60;;;;;;2267370;61;20352;-67
2024/02/07 03:27:48;0.00;0.00;0.62;0.00;0.00;0.62;2.30;1.03;;;22.00;27.60;;;;;;2268436;61;20917;-68
2024/02/07 03:30:33;0.00;0.00;0.62;0.00;0.00;0.62;2.10;1.10;;;22.00;27.60;;;;;;2264271;61;20387;-68
2024/02/07 03:33:19;0.00;0.00;0.62;0.00;0.00;0.62;1.70;1.00;;;22.00;27.50;;;;;;2621173;45;20357;-68
2024/02/07 03:36:08;0.00;0.00;0.62;0.00;0.00;0.62;2.90;1.30;;;22.00;27.50;;;;;;2261916;61;20919;-68
2024/02/07 03:38:52;0.00;0.00;0.62;0.00;0.00;0.62;1.57;0.90;;;22.00;27.50;;;;;;2258557;61;20400;-68
2024/02/07 03:41:37;0.00;0.00;0.62;0.00;0.00;0.62;1.40;0.70;;;22.00;27.50;;;;;;2261807;61;20392;-68
2024/02/07 03:44:23;0.00;0.00;0.62;0.00;0.00;0.62;2.73;1.40;;;21.90;27.50;;;;;;2261850;61;20372;-68
2024/02/07 03:47:09;0.00;0.00;0.62;0.00;0.00;0.62;2.27;1.13;;;22.00;27.50;;;;;;2261460;61;20488;-69
2024/02/07 03:49:53;0.00;0.00;0.62;0.00;0.00;0.62;2.10;0.80;;;22.00;27.50;;;;;;2266420;61;20764;-69
2024/02/07 03:52:42;0.00;0.00;0.62;0.00;0.00;0.62;2.10;1.10;;;21.90;27.50;;;;;;2266470;61;20441;-68
2024/02/07 03:55:27;0.00;0.00;0.62;0.00;0.00;0.62;1.70;0.90;;;21.90;27.40;;;;;;2498796;53;20380;-69
2024/02/07 03:58:12;0.00;0.00;0.62;0.00;0.00;0.62;2.47;1.47;;;21.90;27.40;;;;;;2265672;61;20363;-69
2024/02/07 04:00:58;0.00;0.00;0.62;0.00;0.00;0.62;2.03;0.90;;;21.90;28.00;;;;;;2262740;61;20397;-69
2024/02/07 04:03:43;0.00;0.00;0.62;0.00;0.00;0.62;2.27;1.00;;;21.90;27.40;;;;;;2260229;61;20360;-69
2024/02/07 04:06:28;0.00;0.00;0.62;0.00;0.00;0.62;2.10;1.10;;;21.90;27.40;;;;;;2256896;61;20959;-69
2024/02/07 04:09:18;0.00;0.00;0.62;0.00;0.00;0.62;1.83;1.07;;;21.90;27.40;;;;;;2259783;61;20400;-69
2024/02/07 05:15:45;0.00;0.00;0.62;0.00;0.00;0.62;1.70;0.90;;;21.70;27.30;;;;;;2263395;61;20437;-68
2024/02/07 05:18:30;0.00;0.00;0.62;0.00;0.00;0.62;1.60;0.80;;;21.60;27.30;;;;;;2259130;61;20399;-67
2024/02/07 05:21:15;0.00;0.00;0.62;0.00;0.00;0.62;2.20;1.20;;;21.60;27.30;;;;;;2259138;61;20388;-68
2024/02/07 05:23:59;0.00;0.00;0.62;0.00;0.00;0.62;1.83;1.20;;;21.60;27.30;;;;;;2260437;61;20400;-68
2024/02/07 05:26:44;0.00;0.00;0.62;0.00;0.00;0.62;2.10;1.23;;;21.60;27.30;;;;;;2261007;61;20388;-68
2024/02/07 05:29:31;0.00;0.00;0.62;0.00;0.00;0.62;2.60;1.30;;;21.60;27.20;;;;;;2260898;61;20445;-67
2024/02/07 05:32:16;0.00;0.00;0.62;0.00;0.00;0.62;1.50;0.70;;;21.60;27.20;;;;;;2260823;61;20365;-68
2024/02/07 05:35:01;0.00;0.00;0.62;0.00;0.00;0.62;1.70;0.90;;;21.60;27.20;;;;;;2261016;61;20364;-68
2024/02/07 05:37:45;0.00;0.00;0.62;0.00;0.00;0.62;1.67;1.00;;;21.60;27.20;;;;;;2260691;61;20440;-68
2024/02/07 05:40:30;0.00;0.00;0.62;0.00;0.00;0.62;2.30;1.13;;;21.60;27.20;;;;;;2260904;61;20439;-68
2024/02/07 05:43:14;0.00;0.00;0.62;0.00;0.00;0.62;2.07;1.17;;;21.60;27.20;;;;;;2260588;61;20368;-69
2024/02/07 05:46:00;0.00;0.00;0.62;0.00;0.00;0.62;1.90;1.03;;;21.60;27.20;;;;;;2260973;61;20384;-68
2024/02/07 05:48:45;0.00;0.00;0.62;0.00;0.00;0.62;2.27;1.40;;;21.60;27.20;;;;;;2265009;61;20787;-67
2024/02/07 05:51:29;0.00;0.00;0.62;0.00;0.00;0.62;2.30;1.20;;;21.60;27.20;;;;;;2264060;61;20383;-68
2024/02/07 05:54:14;0.00;0.00;0.62;0.00;0.00;0.62;4.13;1.40;;;21.60;27.20;;;;;;2264797;61;20910;-68
2024/02/07 05:56:58;0.00;0.00;0.62;0.00;0.00;0.62;1.80;1.10;;;21.60;27.20;;;;;;2265068;61;20918;-68
2024/02/07 05:59:43;0.00;0.00;0.62;0.00;0.00;0.62;1.77;1.00;;;21.60;27.20;;;;;;2262970;61;20399;-68
2024/02/07 06:02:29;0.00;0.00;0.62;0.00;0.00;0.62;2.90;1.67;;;21.60;27.20;;;;;;2260509;61;20377;-68
2024/02/07 06:05:13;0.00;0.00;0.62;0.00;0.00;0.62;2.70;1.63;;;21.60;27.20;;;;;;2260926;61;20400;-68
2024/02/07 06:07:58;0.00;0.00;0.62;0.00;0.00;0.62;2.23;1.20;;;21.60;27.20;;;;;;2263920;61;20510;-68
2024/02/07 06:10:44;0.00;0.00;0.62;0.00;0.00;0.62;2.70;1.40;;;21.60;27.20;;;;;;2264702;61;20994;-67
2024/02/07 06:13:28;0.00;0.00;0.62;0.00;0.00;0.62;2.70;1.43;;;21.60;27.20;;;;;;2264693;61;20363;-68
2024/02/07 06:16:13;0.00;0.00;0.62;0.00;0.00;0.62;2.57;1.27;;;21.60;27.20;;;;;;2265234;61;20399;-68
2024/02/07 06:19:00;0.00;0.00;0.62;0.00;0.00;0.62;3.63;1.77;;;21.60;27.20;;;;;;2265328;61;20448;-68
2024/02/07 06:21:44;0.00;0.00;0.62;0.00;0.00;0.62;2.33;1.33;;;21.60;27.20;;;;;;2264591;61;20496;-68
2024/02/07 06:24:29;0.00;0.00;0.62;0.00;0.00;0.62;2.20;1.27;;;21.60;27.20;;;;;;2264490;61;20364;-68
2024/02/07 06:27:13;0.00;0.00;0.62;0.00;0.00;0.62;2.17;1.37;;;21.50;27.10;;;;;;2264669;61;20375;-68
2024/02/07 06:29:58;0.00;0.00;0.62;0.00;0.00;0.62;2.57;1.50;;;21.50;27.10;;;;;;2264307;61;20375;-68
2024/02/07 06:32:42;0.00;0.00;0.62;0.00;0.00;0.62;2.50;1.40;;;21.50;27.10;;;;;;2264513;61;20364;-70
2024/02/07 06:35:28;0.00;0.00;0.62;0.00;0.00;0.62;2.10;1.30;;;21.50;27.10;;;;;;2264531;61;20415;-69
2024/02/07 06:38:12;0.00;0.00;0.62;0.00;0.00;0.62;2.27;1.43;;;21.50;27.20;;;;;;2496948;53;20415;-68
2024/02/07 06:40:57;0.00;0.00;0.62;0.00;0.00;0.62;2.07;1.17;;;21.50;27.20;;;;;;2260456;61;20923;-68
2024/02/07 06:43:42;0.00;0.00;0.62;0.00;0.00;0.62;2.90;1.50;;;21.50;27.10;;;;;;2260896;61;20368;-70
2024/02/07 06:46:29;0.00;0.00;0.62;0.00;0.00;0.62;2.37;1.27;;;21.50;27.20;;;;;;2261125;61;20384;-69
2024/02/07 06:49:14;0.00;0.00;0.62;0.00;0.00;0.62;2.13;1.37;;;21.50;27.20;;;;;;2264643;61;20403;-69
2024/02/07 06:52:00;0.00;0.00;0.62;0.00;0.00;0.62;2.50;1.23;;;21.50;27.20;;;;;;2264344;61;20368;-69
2024/02/07 06:54:45;0.00;0.00;0.62;0.00;0.00;0.62;2.30;1.33;;;21.50;27.20;;;;;;2264419;61;20368;-70
2024/02/07 06:57:30;0.00;0.00;0.62;0.00;0.00;0.62;2.60;1.43;;;21.50;27.20;;;;;;2264593;61;20376;-69
2024/02/07 07:00:16;0.00;0.00;0.62;0.00;0.00;0.62;2.90;1.40;;;21.50;27.20;;;;;;2264278;61;20375;-69
2024/02/07 07:03:01;0.00;0.00;0.62;0.00;0.00;0.62;2.40;1.40;;;21.50;27.20;;;;;;2264519;61;20395;-69
2024/02/07 07:05:46;0.00;0.00;0.62;0.00;0.00;0.62;2.93;2.00;;;21.50;27.20;;;;;;2263175;61;20443;-68
2024/02/07 07:08:32;0.00;0.00;0.62;0.00;0.00;0.62;2.40;1.43;;;21.50;27.20;;;;;;2260126;61;20361;-69
2024/02/07 07:11:16;0.00;0.00;0.62;0.00;0.00;0.62;2.97;1.73;;;21.50;27.20;;;;;;2260523;61;20492;-68
2024/02/07 07:14:01;0.00;0.00;0.62;0.00;0.00;0.62;3.33;1.77;;;21.50;27.20;;;;;;2262616;61;20402;-68
2024/02/07 07:16:45;0.00;0.00;0.62;0.00;0.00;0.62;3.17;1.93;;;21.50;27.20;;;;;;2264324;61;20398;-69
2024/02/07 07:19:30;0.00;0.00;0.62;0.00;0.00;0.62;4.27;2.63;;;21.50;27.20;;;;;;2264580;61;20347;-69
2024/02/07 07:22:14;0.00;0.00;0.62;0.00;0.00;0.62;3.80;2.60;;;21.50;27.20;;;;;;2263941;61;20486;-69
2024/02/07 07:25:00;0.00;0.00;0.62;0.00;0.00;0.62;4.93;3.57;;;21.40;27.10;;;;;;2264318;61;20368;-68
2024/02/07 07:27:45;0.00;0.00;0.62;0.00;0.00;0.62;5.07;3.77;;;21.50;27.20;;;;;;2260862;61;20406;-68
2024/02/07 07:30:29;0.00;0.00;0.62;0.00;0.00;0.62;6.60;4.87;;;21.50;27.20;;;;;;2264417;61;20352;-69
2024/02/07 07:33:14;0.00;0.00;0.62;0.00;0.00;0.62;6.43;5.17;;;21.40;27.10;;;;;;2261318;61;20368;-69
2024/02/07 07:35:58;0.00;0.00;0.62;0.00;0.00;0.62;7.73;5.83;;;21.40;27.10;;;;;;2262040;61;20385;-69
2024/02/07 07:38:43;0.00;0.00;0.62;0.00;0.00;0.62;8.30;6.77;;;21.40;27.10;;;;;;2259884;61;20392;-68
2024/02/07 07:41:29;0.00;0.00;0.62;0.00;0.00;0.62;10.87;7.43;;;21.40;27.10;;;;;;2260425;61;20838;-68
2024/02/07 07:44:14;0.00;0.00;0.62;0.00;0.00;0.62;7.47;6.03;;;21.40;27.10;;;;;;2259800;61;20376;-68
2024/02/07 07:46:59;0.00;0.00;0.62;0.00;0.00;0.62;11.57;7.47;;;21.40;27.10;;;;;;2264168;61;20872;-69
2024/02/07 07:49:43;0.00;0.00;0.62;0.00;0.00;0.62;12.13;7.83;;;21.40;27.10;;;;;;2263965;61;20344;-68
2024/02/07 07:52:28;0.00;0.00;0.62;0.00;0.00;0.62;10.40;8.10;;;21.40;27.20;;;;;;2264210;61;20391;-68
2024/02/07 07:55:13;0.00;0.00;0.62;0.00;0.00;0.62;10.63;8.03;;;21.40;27.20;;;;;;2261067;61;20371;-68
2024/02/07 07:57:59;0.00;0.00;0.62;0.00;0.00;0.62;11.33;8.70;;;21.40;27.10;;;;;;2264065;61;20413;-68
2024/02/07 08:00:44;0.00;0.00;0.62;0.00;0.00;0.62;11.10;9.17;;;21.40;27.10;;;;;;2264428;61;20392;-69
2024/02/07 08:03:28;0.00;0.00;0.62;0.00;0.00;0.62;10.13;8.47;;;21.40;27.10;;;;;;2264166;61;20387;-68
2024/02/07 08:06:15;0.00;0.00;0.62;0.00;0.00;0.62;11.70;7.60;;;21.40;27.10;;;;;;2260763;61;20482;-69
2024/02/07 08:09:00;0.00;0.00;0.62;0.00;0.00;0.62;9.83;8.57;;;21.40;27.10;;;;;;2260312;61;20841;-69
2024/02/07 08:11:45;0.00;0.00;0.62;0.00;0.00;0.62;12.43;8.40;;;21.40;27.20;;;;;;2260450;61;20938;-68
2024/02/07 08:14:31;0.00;0.00;0.62;0.00;0.00;0.62;10.43;8.63;;;21.40;27.20;;;;;;2496646;53;20364;-69
2024/02/07 08:17:18;0.00;0.00;0.62;0.00;0.00;0.62;11.10;8.30;;;21.40;27.20;;;;;;2257884;61;20438;-68
2024/02/07 08:20:03;0.00;0.00;0.62;0.00;0.00;0.62;10.17;8.60;;;21.40;27.20;;;;;;2260939;61;20415;-68
2024/02/07 08:22:48;0.00;0.00;0.62;0.00;0.00;0.62;9.77;8.03;;;21.40;27.20;;;;;;2260885;61;20361;-68
2024/02/07 08:25:33;0.00;0.00;0.62;0.00;0.00;0.62;9.97;7.90;;;21.40;27.20;;;;;;2261147;61;20828;-68
2024/02/07 08:28:17;0.00;0.00;0.62;0.00;0.00;0.62;9.50;7.50;;;21.40;27.20;;;;;;2260804;61;20364;-68
2024/02/07 08:31:03;0.00;0.00;0.62;0.00;0.00;0.62;11.30;8.33;;;21.40;27.20;;;;;;2261049;61;20345;-68
2024/02/07 08:33:48;0.00;0.00;0.62;0.00;0.00;0.62;9.30;7.57;;;21.40;27.20;;;;;;2261240;61;20413;-69
2024/02/07 08:36:32;0.00;0.00;0.62;0.00;0.00;0.62;9.80;7.47;;;21.40;27.20;;;;;;2497244;53;20381;-68
2024/02/07 08:39:17;0.00;0.00;0.62;0.00;0.00;0.62;9.60;8.23;;;21.40;27.20;;;;;;2260875;61;20371;-68
2024/02/07 08:42:05;0.00;0.00;0.62;0.00;0.00;0.62;11.07;8.13;;;21.40;27.20;;;;;;2258616;61;20388;-68
2024/02/07 08:44:50;0.00;0.00;0.62;0.00;0.00;0.62;8.57;7.17;;;21.40;27.20;;;;;;2264823;61;20949;-68
2024/02/07 08:47:36;0.00;0.00;0.62;0.00;0.00;0.62;8.97;7.43;;;21.40;27.20;;;;;;2265049;61;20360;-68
2024/02/07 08:50:20;0.00;0.00;0.62;0.00;0.00;0.62;8.67;7.13;;;21.40;27.70;;;;;;2262199;61;20373;-68
2024/02/07 08:53:05;0.00;0.00;0.62;0.00;0.00;0.62;9.40;7.27;;;21.40;27.20;;;;;;2260721;61;20353;-67
2024/02/07 08:55:55;0.00;0.00;0.62;0.00;0.00;0.62;8.90;7.03;;;21.40;27.20;;;;;;2260972;61;20435;-68
2024/02/07 08:58:40;0.00;0.00;0.62;0.00;0.00;0.62;8.70;7.57;;;21.40;27.20;;;;;;2256475;61;20402;-69
2024/02/07 09:01:24;0.00;0.00;0.62;0.00;0.00;0.62;9.67;7.33;;;21.40;27.20;;;;;;2256804;61;20486;-68
2024/02/07 09:04:10;0.00;0.00;0.62;0.00;0.00;0.62;9.97;8.00;;;21.40;27.20;;;;;;2257182;61;20484;-70
2024/02/07 09:06:55;0.00;0.00;0.62;0.00;0.00;0.62;11.97;7.37;;;21.40;27.20;;;;;;2260692;61;20808;-68
2024/02/07 09:09:39;0.00;0.00;0.62;0.00;0.00;0.62;7.10;5.80;;;21.40;27.20;;;;;;2260027;61;20365;-68
2024/02/07 09:12:24;0.00;0.00;0.62;0.00;0.00;0.62;8.33;6.03;;;21.40;27.20;;;;;;2258086;61;20396;-68
2024/02/07 09:15:09;0.00;0.00;0.62;0.00;0.00;0.62;9.00;6.90;;;21.40;27.20;;;;;;2256812;61;20366;-68
2024/02/07 09:17:54;0.00;0.00;0.62;0.00;0.00;0.62;10.33;6.77;;;21.40;27.20;;;;;;2256841;61;20644;-68
2024/02/07 09:20:40;0.00;0.00;0.62;0.00;0.00;0.62;9.57;6.43;;;21.40;27.20;;;;;;2256441;61;20377;-68
2024/02/07 09:23:25;0.00;0.00;0.62;0.00;0.00;0.62;8.20;6.13;;;21.40;27.20;;;;;;2256901;61;20358;-68
2024/02/07 09:26:09;0.00;0.00;0.62;0.00;0.00;0.62;9.27;6.80;;;21.40;27.20;;;;;;2256891;61;20381;-69
2024/02/07 09:28:54;0.00;0.00;0.62;0.00;0.00;0.62;6.93;5.97;;;21.40;27.20;;;;;;2260641;61;20489;-69
2024/02/07 09:31:40;0.00;0.00;0.62;0.00;0.00;0.62;8.47;6.90;;;21.40;27.20;;;;;;2261161;61;20912;-68
2024/02/07 09:34:25;0.00;0.00;0.62;0.00;0.00;0.62;10.00;7.13;;;21.40;27.20;;;;;;2258420;61;20381;-68
2024/02/07 09:37:11;0.00;0.00;0.62;0.00;0.00;0.62;8.73;6.67;;;21.40;27.20;;;;;;2256776;61;20476;-68
2024/02/07 09:39:56;0.00;0.00;0.62;0.00;0.00;0.62;8.13;6.77;;;21.40;27.20;;;;;;2256935;61;20366;-68
2024/02/07 09:42:43;0.00;0.00;0.62;0.00;0.00;0.62;11.17;7.67;;;21.40;27.10;;;;;;2260695;61;20365;-68
2024/02/07 09:45:34;0.00;0.00;0.62;0.00;0.00;0.62;11.53;7.20;;;21.40;27.10;;;;;;2260872;61;20389;-67
2024/02/07 09:48:21;0.00;0.00;0.62;0.00;0.00;0.62;8.37;7.17;;;21.40;27.10;;;;;;2260982;61;20349;-69
2024/02/07 09:51:08;0.00;0.00;0.62;0.00;0.00;0.62;6.97;6.20;;;21.40;27.10;;;;;;2264685;61;20418;-69
2024/02/07 09:53:54;0.00;0.00;0.62;0.00;0.00;0.62;8.27;6.27;;;21.40;27.10;;;;;;2261820;61;20372;-68
2024/02/07 09:56:42;0.00;0.00;0.62;0.00;0.00;0.62;8.60;6.50;;;21.40;27.10;;;;;;2262417;61;20801;-68
2024/02/07 09:59:27;0.00;0.00;0.62;0.00;0.00;0.62;10.10;6.90;;;21.40;27.10;;;;;;2260775;61;20353;-68
2024/02/07 10:02:25;0.00;0.00;0.62;0.00;0.00;0.62;7.70;6.73;;;21.40;27.10;;;;;;2260837;61;20792;-68
2024/02/07 10:05:13;0.00;0.00;0.62;0.00;0.00;0.62;8.80;6.67;;;21.40;27.10;;;;;;2261295;61;20414;-69
2024/02/07 10:07:58;0.00;0.00;0.62;0.00;0.00;0.62;8.57;5.97;;;21.40;27.10;;;;;;2264696;61;20893;-69
2024/02/07 10:10:50;0.00;0.00;0.62;0.00;0.00;0.62;10.00;5.80;;;21.50;27.20;;;;;;2264640;61;20360;-69
2024/02/07 10:13:36;0.00;0.00;0.62;0.00;0.00;0.62;9.17;7.27;;;21.40;27.10;;;;;;2258436;61;20345;-69
2024/02/07 10:16:22;0.00;0.00;0.62;0.00;0.00;0.62;7.10;5.73;;;21.40;27.10;;;;;;2264678;61;20419;-68
2024/02/07 10:19:07;0.00;0.00;0.62;0.00;0.00;0.62;11.20;7.03;;;21.50;27.20;;;;;;2258643;61;20407;-69
2024/02/07 10:21:51;0.00;0.00;0.62;0.00;0.00;0.62;8.20;5.90;;;21.50;27.20;;;;;;2260905;61;20372;-68
2024/02/07 10:24:36;0.00;0.00;0.62;0.00;0.00;0.62;9.90;5.90;;;21.50;27.20;;;;;;2260740;61;20400;-68
2024/02/07 10:27:23;0.00;0.00;0.62;0.00;0.00;0.62;9.37;6.13;;;21.50;27.20;;;;;;2260604;61;20519;-68
2024/02/07 10:30:09;0.00;0.00;0.62;0.00;0.00;0.62;7.10;6.03;;;21.50;27.20;;;;;;2257763;61;20873;-68
2024/02/07 10:32:55;0.00;0.00;0.62;0.00;0.00;0.62;11.07;5.90;;;21.50;27.20;;;;;;2261451;61;20368;-68
2024/02/07 10:35:41;0.00;0.00;0.62;0.00;0.00;0.62;8.57;5.80;;;21.50;27.10;;;;;;2266714;61;20384;-71
2024/02/07 10:38:27;0.00;0.00;0.62;0.00;0.00;0.62;6.97;5.83;;;21.50;27.70;;;;;;2264766;61;20805;-68
2024/02/07 10:41:14;0.00;0.00;0.62;0.00;0.00;0.62;12.30;5.77;;;21.50;27.10;;;;;;2264516;61;20918;-67
2024/02/07 10:44:08;0.00;0.00;0.62;0.00;0.00;0.62;9.30;5.67;;;21.50;27.10;;;;;;2264824;61;20352;-67
2024/02/07 10:46:58;0.00;0.00;0.62;0.00;0.00;0.62;7.53;6.10;;;21.50;27.10;;;;;;2265242;61;20414;-68
2024/02/07 10:49:43;0.00;0.00;0.62;0.00;0.00;0.62;10.27;6.20;;;21.50;27.10;;;;;;2499730;53;20373;-68
2024/02/07 10:52:29;0.00;0.00;0.62;0.00;0.00;0.62;8.17;5.70;;;21.50;27.00;;;;;;2257821;61;20361;-68
2024/02/07 10:55:14;0.00;0.00;0.62;0.00;0.00;0.62;8.70;6.40;;;21.50;27.00;;;;;;2262390;61;20417;-68
2024/02/07 10:58:01;0.00;0.00;0.62;0.00;0.00;0.62;7.20;5.87;;;21.50;27.00;;;;;;2261915;61;20918;-68
2024/02/07 11:00:49;0.00;0.00;0.62;0.00;0.00;0.62;12.40;6.30;;;21.60;27.10;;;;;;2265175;61;20784;-69
2024/02/07 11:03:35;0.00;0.00;0.62;0.00;0.00;0.62;9.77;7.10;;;21.50;27.00;;;;;;2261801;61;20504;-68
2024/02/07 11:06:21;0.00;0.00;0.62;0.00;0.00;0.62;10.10;6.90;;;21.50;27.00;;;;;;2260732;61;20879;-68
2024/02/07 11:09:07;0.00;0.00;0.62;0.00;0.00;0.62;8.73;6.23;;;21.60;27.10;;;;;;2261058;61;20499;-68
2024/02/07 11:11:52;0.00;0.00;0.62;0.00;0.00;0.62;14.53;7.70;;;21.60;27.10;;;;;;2258726;61;20371;-68
2024/02/07 11:14:37;0.00;0.00;0.62;0.00;0.00;0.62;10.23;6.87;;;21.50;27.00;;;;;;2264561;61;20371;-67
2024/02/07 11:17:23;0.00;0.00;0.62;0.00;0.00;0.62;10.40;6.87;;;21.60;27.00;;;;;;2263450;61;20401;-68
2024/02/07 11:20:09;0.00;0.00;0.62;0.00;0.00;0.62;10.70;6.87;;;21.60;27.00;;;;;;2260288;61;20372;-68
2024/02/07 11:22:56;0.00;0.00;0.62;0.00;0.00;0.62;9.13;6.67;;;21.60;27.00;;;;;;2260624;61;20412;-69
2024/02/07 11:25:42;0.00;0.00;0.62;0.00;0.00;0.62;9.93;7.60;;;21.60;27.00;;;;;;2263034;61;20388;-68
2024/02/07 11:28:29;0.00;0.00;0.62;0.00;0.00;0.62;14.80;8.00;;;21.60;27.00;;;;;;2264420;61;20436;-68
2024/02/07 11:31:16;0.00;0.00;0.62;0.00;0.00;0.62;9.73;6.27;;;21.60;27.00;;;;;;2264432;61;20391;-71
2024/02/07 11:34:03;0.00;0.00;0.62;0.00;0.00;0.62;10.33;7.27;;;21.60;27.00;;;;;;2260322;61;20361;-71
2024/02/07 11:36:53;0.00;0.00;0.62;0.00;0.00;0.62;17.40;7.17;;;21.60;27.00;;;;;;2260474;61;20388;-68
2024/02/07 11:39:39;0.00;0.00;0.62;0.00;0.00;0.62;12.83;8.10;;;21.60;27.00;;;;;;2261301;61;20353;-67
2024/02/07 11:42:24;0.00;0.00;0.62;0.00;0.00;0.62;9.60;7.00;;;21.60;27.00;;;;;;2264202;61;20799;-68
2024/02/07 11:45:13;0.00;0.00;0.62;0.00;0.00;0.62;12.63;7.80;;;21.60;27.00;;;;;;2264569;61;20368;-68
2024/02/07 11:47:58;0.00;0.00;0.62;0.00;0.00;0.62;12.70;8.97;;;21.60;27.00;;;;;;2261772;61;20392;-67
2024/02/07 11:50:45;0.00;0.00;0.62;0.00;0.00;0.62;12.60;8.37;;;21.60;27.00;;;;;;2260590;61;20352;-68
2024/02/07 11:53:30;0.00;0.00;0.62;0.00;0.00;0.62;14.93;7.87;;;21.60;27.00;;;;;;2257513;61;20349;-70
2024/02/07 11:56:20;0.00;0.00;0.62;0.00;0.00;0.62;10.57;8.13;;;21.60;26.90;;;;;;2260329;61;20443;-68
2024/02/07 11:59:06;0.00;0.00;0.62;0.00;0.00;0.62;13.50;9.00;;;21.60;27.00;;;;;;2257130;61;20427;-74